Time;durP1;ratioP1;P1;durP2;ratioP2;P2;SDS_P1;SDS_P2;PMS_P1;PMS_P2;Temp;Humidity;BMP_temperature;BMP_pressure;BME280_temperature;BME280_humidity;BME280_pressure;Samples;Min_cycle;Max_cycle;Signal;HPM_P1;HPM_P2
2021/11/23 00:00:15;;;;;;;3.05;1.42;;;3.90;91.90;;;;;;2097549;28;20032;-96
2021/11/23 00:01:17;;;;;;;2.10;1.25;;;4.00;91.90;;;;;;2092175;28;20045;-95
2021/11/23 00:02:18;;;;;;;3.78;1.30;;;3.90;91.90;;;;;;2092226;28;20033;-84
2021/11/23 00:03:19;;;;;;;3.65;1.35;;;4.00;91.90;;;;;;2082950;28;20020;-87
2021/11/23 00:04:20;;;;;;;3.17;1.50;;;3.90;91.90;;;;;;2066702;28;20019;-95
2021/11/23 00:05:21;;;;;;;2.88;1.35;;;3.90;91.90;;;;;;2074645;28;20019;-94
2021/11/23 00:06:22;;;;;;;3.45;1.52;;;3.90;91.90;;;;;;2075049;28;20022;-96
2021/11/23 00:07:22;;;;;;;3.45;1.60;;;3.90;91.90;;;;;;2084750;28;20014;-81
2021/11/23 00:08:23;;;;;;;3.47;1.30;;;3.90;91.90;;;;;;2077934;28;20042;-90
2021/11/23 00:09:24;;;;;;;4.10;1.73;;;3.90;92.20;;;;;;2070611;28;20015;-96
2021/11/23 00:10:25;;;;;;;4.55;1.70;;;3.90;91.90;;;;;;2085398;28;20034;-93
2021/11/23 00:11:25;;;;;;;3.72;1.73;;;3.90;91.90;;;;;;2090761;28;20025;-95
2021/11/23 00:12:27;;;;;;;2.63;1.48;;;3.90;92.00;;;;;;2077802;28;20054;-96
2021/11/23 00:13:27;;;;;;;3.47;1.80;;;3.90;92.20;;;;;;2084575;28;20080;-96
2021/11/23 00:14:28;;;;;;;4.72;1.55;;;3.90;92.00;;;;;;2084268;28;20033;-96
2021/11/23 00:15:29;;;;;;;3.30;1.67;;;3.90;92.00;;;;;;2070944;28;20026;-94
2021/11/23 00:16:30;;;;;;;4.32;1.80;;;3.90;92.00;;;;;;2062951;28;20539;-95
2021/11/23 00:17:31;;;;;;;3.95;1.50;;;3.90;92.00;;;;;;2070866;28;20023;-95
2021/11/23 00:18:32;;;;;;;2.78;1.40;;;3.90;92.00;;;;;;2079988;28;20022;-95
2021/11/23 00:19:33;;;;;;;3.60;1.60;;;3.90;92.00;;;;;;2078326;28;20029;-95
2021/11/23 00:20:34;;;;;;;3.80;1.42;;;3.90;92.00;;;;;;2074954;28;20029;-94
2021/11/23 00:21:34;;;;;;;2.78;1.42;;;3.90;92.00;;;;;;2083316;28;20024;-96
2021/11/23 00:22:35;;;;;;;3.47;1.65;;;3.90;92.00;;;;;;2074947;28;20030;-95
2021/11/23 00:23:36;;;;;;;3.88;1.58;;;3.90;92.00;;;;;;2075448;28;20030;-94
2021/11/23 00:24:38;;;;;;;4.32;1.70;;;3.80;92.00;;;;;;2082878;28;20029;-96
2021/11/23 00:25:39;;;;;;;3.95;1.67;;;3.80;92.00;;;;;;2075007;28;20116;-95
2021/11/23 00:26:40;;;;;;;3.22;1.50;;;3.90;92.00;;;;;;2067971;28;20060;-96
2021/11/23 00:27:42;;;;;;;4.40;1.70;;;3.80;92.00;;;;;;2066473;28;20045;-96
2021/11/23 00:28:45;;;;;;;3.55;1.60;;;3.90;92.00;;;;;;2066415;28;20208;-96
2021/11/23 00:29:46;;;;;;;3.72;1.70;;;3.90;92.00;;;;;;2059684;28;20118;-96
2021/11/23 00:30:48;;;;;;;4.68;1.75;;;3.80;92.00;;;;;;2067326;28;20093;-96
2021/11/23 00:31:48;;;;;;;3.08;1.50;;;3.90;92.10;;;;;;2062981;28;20033;-95
2021/11/23 00:32:49;;;;;;;2.55;1.58;;;3.80;92.00;;;;;;2075010;28;20089;-95
2021/11/23 00:33:51;;;;;;;3.08;1.70;;;3.90;92.00;;;;;;2058500;28;20169;-96
2021/11/23 00:34:52;;;;;;;4.82;1.80;;;3.80;92.00;;;;;;2067174;28;20026;-96
2021/11/23 00:35:53;;;;;;;3.72;1.95;;;3.80;91.90;;;;;;2066496;28;20037;-95
2021/11/23 00:36:53;;;;;;;4.55;1.92;;;3.80;91.90;;;;;;2074747;28;20473;-96
2021/11/23 00:37:55;;;;;;;3.25;1.90;;;3.80;91.90;;;;;;2074891;28;20106;-95
2021/11/23 00:38:56;;;;;;;4.13;1.63;;;3.90;91.90;;;;;;2064370;28;20026;-96
2021/11/23 00:39:58;;;;;;;4.22;2.05;;;3.80;91.90;;;;;;2074926;28;20022;-95
2021/11/23 00:40:58;;;;;;;4.47;1.90;;;3.90;91.90;;;;;;2072103;28;20032;-96
2021/11/23 00:41:59;;;;;;;2.85;1.73;;;3.90;91.90;;;;;;2074817;28;20018;-95
2021/11/23 00:43:04;;;;;;;4.05;2.10;;;3.90;91.90;;;;;;2066129;28;20030;-96
2021/11/23 00:44:05;;;;;;;4.70;2.28;;;3.90;91.90;;;;;;2074957;28;20034;-95
2021/11/23 00:45:08;;;;;;;3.88;2.00;;;3.90;91.90;;;;;;2079644;28;20030;-96
2021/11/23 00:46:09;;;;;;;4.90;2.13;;;3.90;91.90;;;;;;2067615;28;20106;-96
2021/11/23 00:47:10;;;;;;;4.13;2.17;;;4.00;91.90;;;;;;2066931;28;20049;-95
2021/11/23 00:48:10;;;;;;;4.43;2.10;;;4.00;91.90;;;;;;2066629;28;20026;-96
2021/11/23 00:49:13;;;;;;;4.18;2.50;;;4.00;91.80;;;;;;2058325;28;20122;-96
2021/11/23 00:50:15;;;;;;;5.53;2.45;;;4.00;91.80;;;;;;2074855;28;20077;-96
2021/11/23 00:51:15;;;;;;;4.93;2.40;;;4.00;91.80;;;;;;2071600;28;20078;-96
2021/11/23 00:52:18;;;;;;;4.80;2.35;;;4.00;91.80;;;;;;2060022;28;20030;-96
2021/11/23 00:53:19;;;;;;;4.43;2.13;;;4.10;91.80;;;;;;2059331;28;20125;-96
2021/11/23 00:54:19;;;;;;;4.57;2.08;;;4.00;91.80;;;;;;2061232;28;20540;-96
2021/11/23 00:55:21;;;;;;;4.20;2.00;;;4.10;91.80;;;;;;2081434;28;20057;-94
2021/11/23 00:56:22;;;;;;;3.33;1.85;;;4.10;91.80;;;;;;2091411;28;20032;-93
2021/11/23 00:57:22;;;;;;;4.55;2.40;;;4.10;91.80;;;;;;2082606;28;20562;-95
2021/11/23 00:58:23;;;;;;;3.80;1.88;;;4.10;91.80;;;;;;2074327;28;20054;-96
2021/11/23 00:59:24;;;;;;;4.55;2.30;;;4.10;91.80;;;;;;2073828;28;20534;-96
2021/11/23 01:00:24;;;;;;;4.78;2.03;;;4.10;91.80;;;;;;2066627;28;20027;-96
2021/11/23 01:01:25;;;;;;;5.30;2.13;;;4.20;91.80;;;;;;2066673;28;20022;-95
2021/11/23 01:02:26;;;;;;;3.55;1.90;;;4.20;91.80;;;;;;2058432;28;20408;-96
2021/11/23 01:03:29;;;;;;;4.93;2.20;;;4.20;91.80;;;;;;2075325;28;20034;-96
2021/11/23 01:04:30;;;;;;;4.47;2.08;;;4.20;91.80;;;;;;2076581;28;20028;-96
2021/11/23 01:05:31;;;;;;;4.32;1.92;;;4.30;91.80;;;;;;2075657;28;20109;-96
2021/11/23 01:06:32;;;;;;;5.05;2.00;;;4.30;91.80;;;;;;2059429;28;20401;-96
2021/11/23 01:07:35;;;;;;;5.13;2.03;;;4.30;91.80;;;;;;2075144;28;20493;-94
2021/11/23 01:08:41;;;;;;;3.15;1.92;;;4.30;91.80;;;;;;2090478;28;20025;-94
2021/11/23 01:09:42;;;;;;;4.00;1.95;;;4.30;91.80;;;;;;2074241;28;20026;-96
2021/11/23 01:10:44;;;;;;;5.10;2.00;;;4.30;91.80;;;;;;2082294;28;20030;-94
2021/11/23 01:11:45;;;;;;;4.88;1.80;;;4.40;91.90;;;;;;2087830;28;20025;-96
2021/11/23 01:12:45;;;;;;;4.18;1.80;;;4.40;91.80;;;;;;2073890;28;20062;-96
2021/11/23 01:13:48;;;;;;;3.88;2.20;;;4.40;91.90;;;;;;2074884;28;20125;-95
2021/11/23 01:14:49;;;;;;;4.38;1.63;;;4.40;91.90;;;;;;2081453;28;20029;-96
2021/11/23 01:15:50;;;;;;;3.72;1.80;;;4.50;91.90;;;;;;2070099;28;20052;-95
2021/11/23 01:16:50;;;;;;;3.38;1.52;;;4.50;91.90;;;;;;2079830;28;20025;-96
2021/11/23 01:17:51;;;;;;;3.45;1.83;;;4.50;91.90;;;;;;2090581;28;20033;-95
2021/11/23 01:18:52;;;;;;;4.47;1.90;;;4.50;91.90;;;;;;2093076;28;20491;-96
2021/11/23 01:19:52;;;;;;;4.47;1.75;;;4.50;91.90;;;;;;2082591;28;20113;-93
2021/11/23 01:20:53;;;;;;;3.63;1.70;;;4.50;91.90;;;;;;2073866;28;20057;-95
2021/11/23 01:21:54;;;;;;;3.22;1.63;;;4.60;91.90;;;;;;2082736;28;20033;-95
2021/11/23 01:22:57;;;;;;;3.90;2.08;;;4.60;91.90;;;;;;2082506;28;20064;-95
2021/11/23 01:23:57;;;;;;;4.03;2.10;;;4.60;91.90;;;;;;2083160;28;20041;-96
2021/11/23 01:24:58;;;;;;;4.88;2.10;;;4.60;91.90;;;;;;2082855;28;20026;-96
2021/11/23 01:25:59;;;;;;;3.10;1.60;;;4.60;91.90;;;;;;2073562;28;20033;-94
2021/11/23 01:27:00;;;;;;;3.85;2.00;;;4.60;91.90;;;;;;2074627;28;20502;-95
2021/11/23 01:28:00;;;;;;;4.97;1.80;;;4.60;91.90;;;;;;2075989;28;20055;-96
2021/11/23 01:29:01;;;;;;;3.22;1.50;;;4.70;91.90;;;;;;2074087;28;20037;-95
2021/11/23 01:30:06;;;;;;;3.63;1.70;;;4.70;92.20;;;;;;2081970;28;20038;-95
2021/11/23 01:31:07;;;;;;;4.80;1.70;;;4.70;91.90;;;;;;2079022;28;20120;-95
2021/11/23 01:32:08;;;;;;;3.65;1.60;;;4.70;92.20;;;;;;2066537;28;20405;-95
2021/11/23 01:33:09;;;;;;;3.92;1.50;;;4.70;91.90;;;;;;2068798;28;20152;-95
2021/11/23 01:34:10;;;;;;;3.60;1.88;;;4.70;91.90;;;;;;2074546;28;20170;-96
2021/11/23 01:35:12;;;;;;;3.53;1.88;;;4.70;92.20;;;;;;2074186;28;20030;-96
2021/11/23 01:36:13;;;;;;;3.22;1.73;;;4.70;91.90;;;;;;2072592;28;20073;-96
2021/11/23 01:37:14;;;;;;;3.85;1.80;;;4.70;91.90;;;;;;2082650;28;20029;-95
2021/11/23 01:38:15;;;;;;;3.80;1.95;;;4.70;91.90;;;;;;2074492;28;20022;-95
2021/11/23 01:39:16;;;;;;;3.72;1.95;;;4.70;91.90;;;;;;2074378;28;20093;-95
2021/11/23 01:40:17;;;;;;;3.92;2.03;;;4.70;91.90;;;;;;2082555;28;20029;-95
2021/11/23 01:41:18;;;;;;;3.20;1.90;;;4.70;91.90;;;;;;2082422;28;20037;-95
2021/11/23 01:42:22;;;;;;;3.97;2.00;;;4.70;91.90;;;;;;2073712;28;20141;-96
2021/11/23 01:43:22;;;;;;;4.72;2.00;;;4.70;91.90;;;;;;2066907;28;20031;-95
2021/11/23 01:44:23;;;;;;;3.53;2.10;;;4.70;91.80;;;;;;2074366;28;20022;-95
2021/11/23 01:45:24;;;;;;;3.65;2.10;;;4.70;91.80;;;;;;2074327;28;20097;-95
2021/11/23 01:46:25;;;;;;;4.28;2.28;;;4.70;91.90;;;;;;2082721;28;20057;-96
2021/11/23 01:47:26;;;;;;;3.85;2.17;;;4.70;91.90;;;;;;2074623;28;20026;-96
2021/11/23 01:48:26;;;;;;;4.88;1.95;;;4.70;91.90;;;;;;2082782;28;20522;-96
2021/11/23 01:49:27;;;;;;;3.97;2.10;;;4.70;91.90;;;;;;2074799;28;20036;-96
2021/11/23 01:50:28;;;;;;;4.80;2.20;;;4.70;91.90;;;;;;2073370;28;20027;-96
2021/11/23 01:51:28;;;;;;;4.60;2.20;;;4.70;91.90;;;;;;2072161;28;20054;-90
2021/11/23 01:52:29;;;;;;;4.20;2.00;;;4.70;91.90;;;;;;2068429;28;20074;-96
2021/11/23 01:53:31;;;;;;;4.93;2.25;;;4.70;91.90;;;;;;2084022;28;20034;-95
2021/11/23 01:54:33;;;;;;;4.00;2.13;;;4.70;91.90;;;;;;2076890;28;20029;-88
2021/11/23 01:55:37;;;;;;;5.75;2.45;;;4.70;91.90;;;;;;2084888;28;20041;-90
2021/11/23 01:56:38;;;;;;;3.92;2.25;;;4.80;91.90;;;;;;2093086;28;20060;-95
2021/11/23 01:57:41;;;;;;;5.35;2.80;;;4.70;91.90;;;;;;2100971;28;20032;-88
2021/11/23 01:58:41;;;;;;;4.15;2.00;;;4.80;91.90;;;;;;2099987;28;20007;-90
2021/11/23 01:59:44;;;;;;;4.65;2.00;;;4.70;91.90;;;;;;2092759;28;20024;-93
2021/11/23 02:00:46;;;;;;;3.70;2.00;;;4.80;91.90;;;;;;2083650;28;20008;-89
2021/11/23 02:01:46;;;;;;;3.92;2.20;;;4.70;91.90;;;;;;2083955;28;20010;-93
2021/11/23 02:02:47;;;;;;;4.75;2.38;;;4.80;91.90;;;;;;2083878;28;20114;-92
2021/11/23 02:03:48;;;;;;;4.78;2.22;;;4.80;91.90;;;;;;2074310;28;20011;-96
2021/11/23 02:04:48;;;;;;;5.28;2.42;;;4.80;91.90;;;;;;2067566;28;20046;-96
2021/11/23 02:05:49;;;;;;;4.60;2.35;;;4.80;91.90;;;;;;2074528;28;20064;-96
2021/11/23 02:06:50;;;;;;;4.53;2.08;;;4.70;91.90;;;;;;2084101;28;20029;-96
2021/11/23 02:07:51;;;;;;;5.38;2.15;;;4.70;91.90;;;;;;2091095;28;20036;-96
2021/11/23 02:08:51;;;;;;;4.35;2.10;;;4.80;91.90;;;;;;2090945;28;20044;-95
2021/11/23 02:09:52;;;;;;;4.65;2.15;;;4.80;91.90;;;;;;2083528;28;20480;-96
2021/11/23 02:10:54;;;;;;;4.78;2.17;;;4.70;91.90;;;;;;2067568;28;20100;-96
2021/11/23 02:11:55;;;;;;;4.15;1.75;;;4.70;91.90;;;;;;2082419;28;20447;-96
2021/11/23 02:12:57;;;;;;;5.25;2.22;;;4.70;91.80;;;;;;2075458;28;20029;-96
2021/11/23 02:13:58;;;;;;;5.35;2.40;;;4.70;91.80;;;;;;2075186;28;20025;-96
2021/11/23 02:14:59;;;;;;;4.60;2.20;;;4.70;91.80;;;;;;2075775;28;20112;-96
2021/11/23 02:16:00;;;;;;;3.92;1.90;;;4.70;91.80;;;;;;2067577;28;20030;-96
2021/11/23 02:17:01;;;;;;;4.72;2.17;;;4.70;91.80;;;;;;2075627;28;20053;-96
2021/11/23 02:18:18;;;;;;;4.93;2.17;;;4.70;91.80;;;;;;2091099;28;20025;-96
2021/11/23 02:19:19;;;;;;;5.50;2.92;;;4.70;91.80;;;;;;2094266;28;20025;-95
2021/11/23 02:20:22;;;;;;;5.82;2.90;;;4.70;91.80;;;;;;2083648;28;20057;-96
2021/11/23 02:21:23;;;;;;;4.97;2.40;;;4.60;91.80;;;;;;2091352;28;20029;-96
2021/11/23 02:22:24;;;;;;;6.13;2.60;;;4.70;91.80;;;;;;2097380;28;20097;-95
2021/11/23 02:23:25;;;;;;;4.28;2.08;;;4.60;91.80;;;;;;2096960;28;20040;-96
2021/11/23 02:24:26;;;;;;;4.97;2.40;;;4.60;91.80;;;;;;2087814;28;20500;-96
2021/11/23 02:25:26;;;;;;;3.92;2.20;;;4.60;91.80;;;;;;2096096;28;20033;-96
2021/11/23 02:26:28;;;;;;;4.50;2.47;;;4.60;91.80;;;;;;2087029;28;20041;-96
2021/11/23 02:27:28;;;;;;;5.47;2.22;;;4.60;91.80;;;;;;2091694;28;20034;-95
2021/11/23 02:28:29;;;;;;;5.05;2.22;;;4.60;91.80;;;;;;2091885;28;20126;-97
2021/11/23 02:29:30;;;;;;;5.88;2.50;;;4.60;91.80;;;;;;2092490;28;20052;-96
2021/11/23 02:30:30;;;;;;;4.18;2.33;;;4.60;91.90;;;;;;2099539;28;20033;-96
2021/11/23 02:31:31;;;;;;;5.10;2.38;;;4.60;91.90;;;;;;2077609;28;20465;-95
2021/11/23 02:32:43;;;;;;;3.83;2.22;;;4.60;91.80;;;;;;2066339;28;20057;-95
2021/11/23 02:33:44;;;;;;;4.07;2.20;;;4.60;91.90;;;;;;2076787;28;20022;-96
2021/11/23 02:34:45;;;;;;;4.13;2.20;;;4.60;91.80;;;;;;2083916;28;20018;-96
2021/11/23 02:35:47;;;;;;;4.82;2.63;;;4.60;91.80;;;;;;2066980;28;20049;-96
2021/11/23 02:36:48;;;;;;;4.63;2.30;;;4.60;91.80;;;;;;2082138;28;20443;-96
2021/11/23 02:37:51;;;;;;;4.07;2.25;;;4.60;91.80;;;;;;2061361;28;20050;-96
2021/11/23 02:38:52;;;;;;;5.05;2.30;;;4.60;91.90;;;;;;2067464;28;20073;-96
2021/11/23 02:39:53;;;;;;;5.75;2.55;;;4.60;91.90;;;;;;2061395;28;20027;-96
2021/11/23 02:40:53;;;;;;;4.10;2.40;;;4.60;91.90;;;;;;2066943;28;20105;-96
2021/11/23 02:41:54;;;;;;;4.55;2.33;;;4.60;91.90;;;;;;2067117;28;20389;-96
2021/11/23 02:42:56;;;;;;;4.95;2.70;;;4.60;91.90;;;;;;2082515;28;20017;-96
2021/11/23 02:43:57;;;;;;;5.28;2.63;;;4.60;91.90;;;;;;2082545;28;20025;-96
2021/11/23 02:44:57;;;;;;;4.03;2.22;;;4.60;91.90;;;;;;2074044;28;20118;-96
2021/11/23 02:45:58;;;;;;;5.07;2.60;;;4.60;91.90;;;;;;2083646;28;20033;-96
2021/11/23 02:47:02;;;;;;;4.63;2.53;;;4.60;91.90;;;;;;2082289;28;20052;-96
2021/11/23 02:48:03;;;;;;;5.18;2.50;;;4.60;91.90;;;;;;2066893;28;20022;-96
2021/11/23 02:49:04;;;;;;;5.80;2.67;;;4.60;91.90;;;;;;2067007;28;20023;-96
2021/11/23 02:50:07;;;;;;;6.00;2.63;;;4.60;91.90;;;;;;2058526;28;20401;-96
2021/11/23 02:51:15;;;;;;;4.30;2.35;;;4.60;91.90;;;;;;2071542;28;20689;-95
2021/11/23 02:52:16;;;;;;;5.57;2.97;;;4.70;91.90;;;;;;2083274;28;20046;-96
2021/11/23 02:53:17;;;;;;;5.15;2.55;;;4.60;91.90;;;;;;2083063;28;20035;-96
2021/11/23 02:54:17;;;;;;;5.10;2.80;;;4.60;91.90;;;;;;2077707;28;20132;-96
2021/11/23 02:55:20;;;;;;;5.65;2.58;;;4.70;91.90;;;;;;2075202;28;20025;-95
2021/11/23 02:56:21;;;;;;;4.43;2.47;;;4.70;91.90;;;;;;2074660;28;20040;-94
2021/11/23 02:57:28;;;;;;;5.57;2.70;;;4.70;91.90;;;;;;2065943;28;20503;-96
2021/11/23 02:58:32;;;;;;;4.85;2.40;;;4.70;91.90;;;;;;2082762;28;20083;-96
2021/11/23 02:59:33;;;;;;;4.88;2.60;;;4.60;91.90;;;;;;2081264;28;20098;-95
2021/11/23 03:00:35;;;;;;;4.93;2.58;;;4.60;91.90;;;;;;2073694;28;20084;-96
2021/11/23 03:01:36;;;;;;;4.25;2.65;;;4.70;91.90;;;;;;2079152;28;20075;-96
2021/11/23 03:02:37;;;;;;;6.65;2.70;;;4.70;91.90;;;;;;2073743;28;20483;-96
2021/11/23 03:03:38;;;;;;;5.47;2.80;;;4.60;91.90;;;;;;2073855;28;20403;-95
2021/11/23 03:04:38;;;;;;;7.38;2.90;;;4.70;91.90;;;;;;2064849;28;20027;-96
2021/11/23 03:05:40;;;;;;;5.57;2.47;;;4.70;91.90;;;;;;2073689;28;20213;-96
2021/11/23 03:06:43;;;;;;;5.78;3.00;;;4.70;91.90;;;;;;2082065;28;20068;-95
2021/11/23 03:07:44;;;;;;;5.18;2.78;;;4.70;91.90;;;;;;2082042;28;20018;-94
2021/11/23 03:08:46;;;;;;;6.53;2.70;;;4.70;91.90;;;;;;2089385;28;20067;-93
2021/11/23 03:09:47;;;;;;;5.22;2.72;;;4.70;92.00;;;;;;2089898;28;20021;-96
2021/11/23 03:10:48;;;;;;;5.95;2.83;;;4.70;91.90;;;;;;2080162;28;20037;-96
2021/11/23 03:11:49;;;;;;;7.07;2.97;;;4.70;92.00;;;;;;2087132;28;20025;-95
2021/11/23 03:12:52;;;;;;;5.15;2.80;;;4.70;92.00;;;;;;2090098;28;20051;-96
2021/11/23 03:13:53;;;;;;;5.40;2.60;;;4.70;92.00;;;;;;2081895;28;20393;-95
2021/11/23 03:14:54;;;;;;;4.63;2.88;;;4.70;92.00;;;;;;2073476;28;20129;-94
2021/11/23 03:15:54;;;;;;;5.00;3.00;;;4.70;92.00;;;;;;2065885;28;20052;-93
2021/11/23 03:16:55;;;;;;;5.35;2.72;;;4.70;92.00;;;;;;2057737;28;20058;-94
2021/11/23 03:17:56;;;;;;;4.85;2.88;;;4.70;92.00;;;;;;2071127;28;20095;-94
2021/11/23 03:18:57;;;;;;;5.18;3.10;;;4.70;92.00;;;;;;2082281;28;20026;-95
2021/11/23 03:19:57;;;;;;;4.78;2.78;;;4.70;92.30;;;;;;2074737;28;20038;-93
2021/11/23 03:20:58;;;;;;;5.30;2.70;;;4.70;92.00;;;;;;2081628;28;20029;-94
2021/11/23 03:21:59;;;;;;;5.05;2.78;;;4.70;92.00;;;;;;2073524;28;20457;-93
2021/11/23 03:22:59;;;;;;;4.75;2.92;;;4.70;92.00;;;;;;2073940;28;20033;-94
2021/11/23 03:24:00;;;;;;;4.72;2.65;;;4.70;92.00;;;;;;2063776;28;20030;-94
2021/11/23 03:25:01;;;;;;;6.45;3.13;;;4.70;92.00;;;;;;2064651;28;20053;-94
2021/11/23 03:26:02;;;;;;;5.97;2.85;;;4.70;92.00;;;;;;2073249;28;20129;-95
2021/11/23 03:27:03;;;;;;;4.93;2.75;;;4.70;92.10;;;;;;2074490;28;20049;-94
2021/11/23 03:28:05;;;;;;;6.00;2.40;;;4.70;92.00;;;;;;2086337;28;20032;-94
2021/11/23 03:29:06;;;;;;;5.70;3.00;;;4.70;92.00;;;;;;2087559;28;20060;-95
2021/11/23 03:30:10;;;;;;;5.07;2.80;;;4.70;92.10;;;;;;2074512;28;20037;-94
2021/11/23 03:31:11;;;;;;;6.18;2.72;;;4.70;92.10;;;;;;2083242;28;20438;-95
2021/11/23 03:32:12;;;;;;;6.07;3.13;;;4.70;92.10;;;;;;2081817;28;20034;-93
2021/11/23 03:33:13;;;;;;;5.32;2.75;;;4.70;92.10;;;;;;2090370;28;20073;-94
2021/11/23 03:34:16;;;;;;;5.70;2.97;;;4.70;92.10;;;;;;2091495;28;20036;-94
2021/11/23 03:35:18;;;;;;;4.30;2.50;;;4.70;92.10;;;;;;2089408;28;20229;-94
2021/11/23 03:36:19;;;;;;;5.03;2.90;;;4.70;92.10;;;;;;2082030;28;20057;-94
2021/11/23 03:37:23;;;;;;;5.78;3.08;;;4.70;92.10;;;;;;2074483;28;20034;-93
2021/11/23 03:38:24;;;;;;;4.45;2.70;;;4.70;92.10;;;;;;2082395;28;20025;-93
2021/11/23 03:39:25;;;;;;;4.53;2.72;;;4.80;92.20;;;;;;2090091;28;20395;-95
2021/11/23 03:40:27;;;;;;;5.82;3.17;;;4.70;92.10;;;;;;2081182;28;20044;-93
2021/11/23 03:41:28;;;;;;;5.65;3.20;;;4.70;92.20;;;;;;2079552;28;20026;-93
2021/11/23 03:42:29;;;;;;;6.97;3.30;;;4.70;92.20;;;;;;2083260;28;20010;-94
2021/11/23 03:43:29;;;;;;;4.28;2.80;;;4.70;92.10;;;;;;2075829;28;20054;-82
2021/11/23 03:44:31;;;;;;;5.07;3.10;;;4.70;92.10;;;;;;2075383;28;20054;-86
2021/11/23 03:45:32;;;;;;;5.55;2.85;;;4.80;92.20;;;;;;2075895;28;20022;-94
2021/11/23 03:46:33;;;;;;;5.35;3.13;;;4.80;92.20;;;;;;2092011;28;20018;-81
2021/11/23 03:47:35;;;;;;;5.32;2.85;;;4.80;92.20;;;;;;2097080;28;20036;-83
2021/11/23 03:48:36;;;;;;;5.28;2.83;;;4.80;92.20;;;;;;2100022;28;20021;-90
2021/11/23 03:49:37;;;;;;;6.07;2.83;;;4.80;92.20;;;;;;2098882;28;20032;-87
2021/11/23 03:50:38;;;;;;;5.40;3.10;;;4.80;92.20;;;;;;2099945;28;20037;-85
2021/11/23 03:51:40;;;;;;;5.95;3.30;;;4.80;92.20;;;;;;2094534;28;20041;-89
2021/11/23 03:52:41;;;;;;;5.05;2.88;;;4.80;92.20;;;;;;2097274;28;20009;-94
2021/11/23 03:53:41;;;;;;;5.88;3.20;;;4.80;92.20;;;;;;2089846;28;20020;-94
2021/11/23 03:54:42;;;;;;;5.18;3.10;;;4.80;92.20;;;;;;2083218;28;20022;-92
2021/11/23 03:55:48;;;;;;;5.22;2.88;;;4.80;92.20;;;;;;2073653;28;20508;-94
2021/11/23 03:56:50;;;;;;;6.53;2.95;;;4.80;92.20;;;;;;2074660;28;20037;-92
2021/11/23 03:57:52;;;;;;;6.47;2.83;;;4.80;92.30;;;;;;2063945;28;20023;-93
2021/11/23 03:58:52;;;;;;;4.97;2.88;;;4.90;92.30;;;;;;2066361;28;20477;-93
2021/11/23 03:59:54;;;;;;;4.90;2.63;;;4.80;92.30;;;;;;2082099;28;20233;-93
2021/11/23 04:00:54;;;;;;;5.10;3.00;;;4.80;92.30;;;;;;2058611;28;20462;-93
2021/11/23 04:01:55;;;;;;;4.82;2.60;;;4.80;92.30;;;;;;2065632;28;20030;-93
2021/11/23 04:02:56;;;;;;;5.35;2.75;;;4.90;92.30;;;;;;2065501;28;20029;-93
2021/11/23 04:03:56;;;;;;;4.72;2.88;;;4.90;92.30;;;;;;2075168;28;20460;-93
2021/11/23 04:04:57;;;;;;;4.63;2.63;;;4.90;92.30;;;;;;2090655;28;20025;-94
2021/11/23 04:05:58;;;;;;;4.55;2.50;;;4.90;92.30;;;;;;2074147;28;20042;-94
2021/11/23 04:06:59;;;;;;;4.97;3.03;;;4.90;92.30;;;;;;2065970;28;20071;-93
2021/11/23 04:08:01;;;;;;;4.72;2.85;;;4.90;92.30;;;;;;2085731;28;20029;-92
2021/11/23 04:09:02;;;;;;;4.72;2.47;;;4.90;92.30;;;;;;2082356;28;20032;-91
2021/11/23 04:10:04;;;;;;;5.32;2.80;;;4.90;92.30;;;;;;2083340;28;20031;-93
2021/11/23 04:11:05;;;;;;;6.13;2.95;;;4.90;92.30;;;;;;2091236;28;20089;-92
2021/11/23 04:12:08;;;;;;;4.88;2.67;;;4.90;92.30;;;;;;2091385;28;20077;-93
2021/11/23 04:13:08;;;;;;;5.15;2.53;;;5.00;92.40;;;;;;2098875;28;20005;-96
2021/11/23 04:14:09;;;;;;;5.93;2.80;;;5.00;92.40;;;;;;2074044;28;20048;-95
2021/11/23 04:15:10;;;;;;;4.70;2.65;;;5.00;92.40;;;;;;2065556;28;20425;-93
2021/11/23 04:16:12;;;;;;;4.63;2.40;;;5.00;92.40;;;;;;2065306;28;20035;-94
2021/11/23 04:17:12;;;;;;;4.95;2.85;;;5.00;92.40;;;;;;2081912;28;20020;-93
2021/11/23 04:18:14;;;;;;;5.07;2.70;;;5.00;92.40;;;;;;2089385;28;20529;-94
2021/11/23 04:19:14;;;;;;;4.82;2.55;;;5.10;92.40;;;;;;2089811;28;20025;-92
2021/11/23 04:20:15;;;;;;;6.00;3.03;;;5.00;92.40;;;;;;2082723;28;20034;-94
2021/11/23 04:21:17;;;;;;;6.93;3.05;;;5.10;92.40;;;;;;2083823;28;20091;-93
2021/11/23 04:22:18;;;;;;;5.40;2.75;;;5.10;92.40;;;;;;2089872;28;20029;-95
2021/11/23 04:23:19;;;;;;;5.85;2.97;;;5.10;92.40;;;;;;2080674;28;20456;-94
2021/11/23 04:24:20;;;;;;;5.88;3.10;;;5.10;92.40;;;;;;2081637;28;20645;-93
2021/11/23 04:25:21;;;;;;;3.88;2.40;;;5.10;92.40;;;;;;2081268;28;20042;-93
2021/11/23 04:26:21;;;;;;;6.05;2.60;;;5.10;92.40;;;;;;2086178;28;20033;-94
2021/11/23 04:27:22;;;;;;;4.90;2.70;;;5.10;92.40;;;;;;2081114;28;20029;-94
2021/11/23 04:28:23;;;;;;;4.53;2.55;;;5.10;92.40;;;;;;2073298;28;20022;-94
2021/11/23 04:29:24;;;;;;;5.05;2.60;;;5.10;92.40;;;;;;2082119;28;20030;-93
2021/11/23 04:30:25;;;;;;;4.95;2.92;;;5.10;92.40;;;;;;2079638;28;20048;-94
2021/11/23 04:31:26;;;;;;;4.88;2.85;;;5.10;92.40;;;;;;2081209;28;20384;-93
2021/11/23 04:32:27;;;;;;;5.53;2.67;;;5.10;92.60;;;;;;2072821;28;20052;-93
2021/11/23 04:33:28;;;;;;;5.18;2.40;;;5.10;92.40;;;;;;2081177;28;20030;-93
2021/11/23 04:34:29;;;;;;;4.82;2.58;;;5.10;92.40;;;;;;2081888;28;20025;-93
2021/11/23 04:35:31;;;;;;;4.80;2.65;;;5.10;92.40;;;;;;2081206;28;20039;-93
2021/11/23 04:36:31;;;;;;;6.60;3.17;;;5.20;92.40;;;;;;2089588;28;20025;-92
2021/11/23 04:37:32;;;;;;;5.40;2.90;;;5.10;92.40;;;;;;2080486;28;20113;-92
2021/11/23 04:38:33;;;;;;;5.18;2.70;;;5.20;92.40;;;;;;2072319;28;20022;-92
2021/11/23 04:39:33;;;;;;;5.30;2.80;;;5.20;92.40;;;;;;2073516;28;20168;-93
2021/11/23 04:40:34;;;;;;;4.70;2.70;;;5.20;92.40;;;;;;2064917;28;20034;-92
2021/11/23 04:41:35;;;;;;;6.40;2.72;;;5.20;92.40;;;;;;2073500;28;20554;-93
2021/11/23 04:42:37;;;;;;;4.68;2.67;;;5.20;92.40;;;;;;2082523;28;20116;-94
2021/11/23 04:43:38;;;;;;;6.88;2.95;;;5.20;92.40;;;;;;2089494;28;20087;-93
2021/11/23 04:44:39;;;;;;;5.05;2.80;;;5.20;92.40;;;;;;2081213;28;20021;-93
2021/11/23 04:45:40;;;;;;;5.28;2.60;;;5.20;92.40;;;;;;2065134;28;20037;-95
2021/11/23 04:46:41;;;;;;;5.65;2.50;;;5.30;92.70;;;;;;2064352;28;20034;-95
2021/11/23 04:47:42;;;;;;;4.93;2.50;;;5.30;92.40;;;;;;2089843;28;20115;-94
2021/11/23 04:48:43;;;;;;;5.95;2.70;;;5.20;92.40;;;;;;2090140;28;20047;-94
2021/11/23 04:49:44;;;;;;;5.65;2.80;;;5.30;92.40;;;;;;2090116;28;20398;-94
2021/11/23 04:50:45;;;;;;;5.80;2.50;;;5.30;92.70;;;;;;2087890;28;20055;-93
2021/11/23 04:51:45;;;;;;;4.72;2.40;;;5.20;92.40;;;;;;2089120;28;20119;-94
2021/11/23 04:52:46;;;;;;;5.53;2.33;;;5.30;92.40;;;;;;2089411;28;20461;-95
2021/11/23 04:53:47;;;;;;;3.67;2.30;;;5.30;92.50;;;;;;2081293;28;20034;-94
2021/11/23 04:54:47;;;;;;;4.43;2.53;;;5.30;92.50;;;;;;2073422;28;20060;-94
2021/11/23 04:55:49;;;;;;;4.93;2.65;;;5.30;92.50;;;;;;2082906;28;20076;-93
2021/11/23 04:56:49;;;;;;;4.45;2.53;;;5.30;92.50;;;;;;2066379;28;20026;-94
2021/11/23 04:57:50;;;;;;;5.70;2.50;;;5.30;92.50;;;;;;2066198;28;20030;-95
2021/11/23 04:58:51;;;;;;;5.20;2.35;;;5.30;92.50;;;;;;2074702;28;20026;-94
2021/11/23 04:59:52;;;;;;;4.75;2.40;;;5.30;92.50;;;;;;2090548;28;20069;-94
2021/11/23 05:00:52;;;;;;;6.05;2.60;;;5.30;92.50;;;;;;2082226;28;20022;-94
2021/11/23 05:01:53;;;;;;;6.18;2.60;;;5.30;92.50;;;;;;2074825;28;20336;-94
2021/11/23 05:02:54;;;;;;;5.45;2.67;;;5.30;92.50;;;;;;2074078;28;20026;-94
2021/11/23 05:03:55;;;;;;;4.03;2.05;;;5.30;92.50;;;;;;2066632;28;20058;-95
2021/11/23 05:04:56;;;;;;;5.47;2.63;;;5.30;92.40;;;;;;2082978;28;20021;-94
2021/11/23 05:05:56;;;;;;;5.22;2.60;;;5.40;92.50;;;;;;2099557;28;20056;-94
2021/11/23 05:06:57;;;;;;;4.97;2.55;;;5.40;92.50;;;;;;2077457;28;20212;-94
2021/11/23 05:07:58;;;;;;;4.38;2.13;;;5.40;92.50;;;;;;2072706;28;20037;-93
2021/11/23 05:08:58;;;;;;;5.40;2.70;;;5.40;92.50;;;;;;2074427;28;20022;-93
2021/11/23 05:09:59;;;;;;;5.70;2.60;;;5.40;92.50;;;;;;2066317;28;20073;-92
2021/11/23 05:11:00;;;;;;;4.43;2.20;;;5.40;92.50;;;;;;2079635;28;20029;-93
2021/11/23 05:12:00;;;;;;;3.88;2.55;;;5.40;92.50;;;;;;2088397;28;20029;-94
2021/11/23 05:13:01;;;;;;;5.45;2.35;;;5.40;92.70;;;;;;2074501;28;20105;-95
2021/11/23 05:14:02;;;;;;;4.30;2.42;;;5.40;92.50;;;;;;2075862;28;20030;-94
2021/11/23 05:15:03;;;;;;;3.88;2.28;;;5.40;92.50;;;;;;2082655;28;20024;-95
2021/11/23 05:16:05;;;;;;;5.00;2.60;;;5.40;92.50;;;;;;2091033;28;20079;-94
2021/11/23 05:17:06;;;;;;;3.78;2.20;;;5.40;92.50;;;;;;2090325;28;20483;-93
2021/11/23 05:18:07;;;;;;;4.30;2.47;;;5.40;92.50;;;;;;2090847;28;20044;-93
2021/11/23 05:19:08;;;;;;;4.45;2.22;;;5.40;92.50;;;;;;2081378;28;20026;-93
2021/11/23 05:20:09;;;;;;;4.78;2.35;;;5.40;92.50;;;;;;2090256;28;20495;-92
2021/11/23 05:21:11;;;;;;;6.13;2.60;;;5.40;92.50;;;;;;2087177;28;20475;-94
2021/11/23 05:22:11;;;;;;;4.97;2.40;;;5.40;92.50;;;;;;2087778;28;20036;-94
2021/11/23 05:23:12;;;;;;;4.03;2.25;;;5.40;92.50;;;;;;2090135;28;20544;-93